createdAt,value
2019-05-01T00:01:39.071Z,68.06
2019-05-01T00:04:20.682Z,66.72
2019-05-01T00:06:55.203Z,67.41
2019-05-01T00:09:27.095Z,66.90
2019-05-01T00:11:58.588Z,66.70
2019-05-01T00:14:31.821Z,65.82
2019-05-01T00:17:03.866Z,65.74
2019-05-01T00:19:35.561Z,64.83
2019-05-01T00:22:07.535Z,63.57
2019-05-01T00:24:39.447Z,61.74
2019-05-01T00:27:11.033Z,62.30
2019-05-01T00:29:42.779Z,62.10
2019-05-01T00:32:14.904Z,62.39
2019-05-01T00:34:46.984Z,63.09
2019-05-01T00:37:18.835Z,63.02
2019-05-01T00:39:50.768Z,62.20
2019-05-01T00:42:22.593Z,62.12
2019-05-01T00:44:54.330Z,62.02
2019-05-01T00:47:26.150Z,61.63
2019-05-01T00:49:57.791Z,62.11
2019-05-01T00:52:29.720Z,62.84
2019-05-01T00:55:18.804Z,62.91
2019-05-01T00:57:58.705Z,64.33
2019-05-01T01:00:43.531Z,63.99
2019-05-01T01:03:15.469Z,64.07
2019-05-01T01:05:47.292Z,64.13
2019-05-01T01:08:19.190Z,64.73
2019-05-01T01:10:50.916Z,65.91
2019-05-01T01:13:22.427Z,66.94
2019-05-01T01:15:54.041Z,66.89
2019-05-01T01:18:25.491Z,67.52
2019-05-01T01:20:57.316Z,68.27
2019-05-01T01:23:29.175Z,68.94
2019-05-01T01:26:01.012Z,68.97
2019-05-01T01:28:32.723Z,69.54
2019-05-01T01:31:04.985Z,69.17
2019-05-01T01:33:36.796Z,69.38
2019-05-01T01:36:08.414Z,69.54
2019-05-01T01:38:39.981Z,69.80
2019-05-01T01:41:12.117Z,70.46
2019-05-01T01:43:54.606Z,69.92
2019-05-01T01:46:28.243Z,70.59
2019-05-01T01:49:00.186Z,69.74
2019-05-01T01:51:31.942Z,69.81
2019-05-01T01:54:03.993Z,69.61
2019-05-01T01:56:35.825Z,70.04
2019-05-01T01:59:07.737Z,69.92
2019-05-01T02:02:02.813Z,69.36
2019-05-01T02:04:56.494Z,69.37
2019-05-01T02:07:29.130Z,69.92
2019-05-01T02:10:01.470Z,70.22
2019-05-01T02:12:33.865Z,70.16
2019-05-01T02:15:05.768Z,70.55
2019-05-01T02:17:37.494Z,70.16
2019-05-01T02:20:10.120Z,70.92
2019-05-01T02:22:41.625Z,69.94
2019-05-01T02:25:14.466Z,70.18
2019-05-01T02:28:04.133Z,70.28
2019-05-01T02:30:36.065Z,69.45
2019-05-01T02:33:09.167Z,68.91
2019-05-01T02:35:40.517Z,69.26
2019-05-01T02:38:13.418Z,68.44
2019-05-01T02:40:52.272Z,68.02
2019-05-01T02:43:27.048Z,68.29
2019-05-01T02:46:01.161Z,68.25
2019-05-01T02:48:35.911Z,68.02
2019-05-01T02:51:08.037Z,68.30
2019-05-01T02:53:42.264Z,67.33
2019-05-01T02:56:25.443Z,67.26
2019-05-01T02:58:58.257Z,67.05
2019-05-01T03:01:45.418Z,67.74
2019-05-01T03:04:04.568Z,67.68
2019-05-01T03:06:37.694Z,67.34
2019-05-01T03:09:09.252Z,67.61
2019-05-01T03:11:42.887Z,67.87
2019-05-01T03:14:18.668Z,68.48
2019-05-01T03:16:52.490Z,68.71
2019-05-01T03:19:42.974Z,69.41
2019-05-01T03:22:33.049Z,68.83
2019-05-01T03:25:04.840Z,68.36
2019-05-01T03:27:36.583Z,68.24
2019-05-01T03:30:08.455Z,69.17
2019-05-01T03:32:40.519Z,69.16
2019-05-01T03:35:12.413Z,68.55
2019-05-01T03:37:45.660Z,67.50
2019-05-01T03:40:17.684Z,68.27
2019-05-01T03:42:49.756Z,67.30
2019-05-01T03:45:21.676Z,67.93
2019-05-01T03:47:55.408Z,68.59
2019-05-01T03:50:27.307Z,69.42
2019-05-01T03:52:59.442Z,68.39
2019-05-01T03:55:31.004Z,68.55
2019-05-01T03:58:03.489Z,68.52
2019-05-01T04:00:56.068Z,68.18
2019-05-01T04:03:31.595Z,67.85
2019-05-01T04:06:03.612Z,67.32
2019-05-01T04:08:35.435Z,67.40
2019-05-01T04:11:07.532Z,67.26
2019-05-01T04:13:39.368Z,67.28
2019-05-01T04:16:11.030Z,66.99
2019-05-01T04:18:42.592Z,67.61
2019-05-01T04:21:14.112Z,66.90
2019-05-01T04:23:45.899Z,66.86
2019-05-01T04:26:18.083Z,67.40
2019-05-01T04:29:05.965Z,67.97
2019-05-01T04:31:51.767Z,67.55
2019-05-01T04:34:30.280Z,67.08
2019-05-01T04:37:03.774Z,67.36
2019-05-01T04:39:36.452Z,67.52
2019-05-01T04:42:08.217Z,67.21
2019-05-01T04:44:39.951Z,66.99
2019-05-01T04:47:11.487Z,67.15
2019-05-01T04:49:43.463Z,66.14
2019-05-01T04:52:15.561Z,66.01
2019-05-01T04:54:47.660Z,64.76
2019-05-01T04:57:19.393Z,63.43
2019-05-01T04:59:51.373Z,64.34
2019-05-01T05:02:32.473Z,65.01
2019-05-01T05:05:04.409Z,65.62
2019-05-01T05:07:36.257Z,64.97
2019-05-01T05:10:09.044Z,64.55
2019-05-01T05:13:12.626Z,64.60
2019-05-01T05:15:55.852Z,64.74
2019-05-01T05:18:27.711Z,64.10
2019-05-01T05:20:59.975Z,64.24
2019-05-01T05:23:31.987Z,63.45
2019-05-01T05:26:04.101Z,63.33
2019-05-01T05:28:37.113Z,62.93
2019-05-01T05:31:10.020Z,63.16
2019-05-01T05:33:45.556Z,62.29
2019-05-01T05:36:19.805Z,60.15
2019-05-01T05:38:59.983Z,60.46
2019-05-01T05:41:33.474Z,59.91
2019-05-01T05:44:05.344Z,60.40
2019-05-01T05:46:37.342Z,59.55
2019-05-01T05:49:09.263Z,59.84
2019-05-01T05:51:54.878Z,57.00
2019-05-01T05:54:53.987Z,58.12
2019-05-01T05:57:50.819Z,57.66
2019-05-01T06:00:54.126Z,54.93
2019-05-01T06:03:46.575Z,55.25
2019-05-01T06:06:35.682Z,54.68
2019-05-01T06:09:13.964Z,54.81
2019-05-01T06:12:04.997Z,53.86
2019-05-01T06:15:06.085Z,55.04
2019-05-01T06:17:43.068Z,55.90
2019-05-01T06:20:37.526Z,53.63
2019-05-01T06:23:26.523Z,53.41
2019-05-01T06:26:02.476Z,53.49
2019-05-01T06:28:34.222Z,52.44
2019-05-01T06:31:23.053Z,52.52
2019-05-01T06:33:54.924Z,52.15
2019-05-01T06:36:26.955Z,51.79
2019-05-01T06:39:00.361Z,50.22
2019-05-01T06:41:42.560Z,51.46
2019-05-01T06:44:33.394Z,50.90
2019-05-01T06:47:24.437Z,52.24
2019-05-01T06:50:13.727Z,50.28
2019-05-01T06:52:45.946Z,49.11
2019-05-01T06:55:22.539Z,48.86
2019-05-01T06:57:52.777Z,46.44
2019-05-01T07:00:24.478Z,49.34
2019-05-01T07:02:58.477Z,47.34
2019-05-01T07:05:31.564Z,46.33
2019-05-01T07:08:04.720Z,46.34
2019-05-01T07:10:44.238Z,45.55
2019-05-01T07:13:11.066Z,46.17
2019-05-01T07:15:42.965Z,44.02
2019-05-01T07:18:18.806Z,46.95
2019-05-01T07:20:51.646Z,45.76
2019-05-01T07:23:24.659Z,47.27
2019-05-01T07:25:56.261Z,46.30
2019-05-01T07:28:34.216Z,42.84
2019-05-01T07:31:06.464Z,43.25
2019-05-01T07:33:38.272Z,44.16
2019-05-01T07:36:15.261Z,44.37
2019-05-01T07:38:44.920Z,43.34
2019-05-01T07:41:16.583Z,45.03
2019-05-01T07:44:06.205Z,44.38
2019-05-01T07:47:06.322Z,42.54
2019-05-01T07:49:59.170Z,44.13
2019-05-01T07:52:31.245Z,44.29
2019-05-01T07:55:03.008Z,42.62
2019-05-01T07:57:39.231Z,42.20
2019-05-01T08:00:12.165Z,43.99
2019-05-01T08:02:44.597Z,42.33
2019-05-01T08:05:16.470Z,42.05
2019-05-01T08:07:48.427Z,40.27
2019-05-01T08:10:20.936Z,41.13
2019-05-01T08:12:55.525Z,39.70
2019-05-01T08:15:30.279Z,42.07
2019-05-01T08:18:15.449Z,41.79
2019-05-01T08:20:52.583Z,42.14
2019-05-01T08:23:24.488Z,39.87
2019-05-01T08:25:56.314Z,42.32
2019-05-01T08:28:46.841Z,40.98
2019-05-01T08:31:44.021Z,41.59
2019-05-01T08:34:20.620Z,41.74
2019-05-01T08:36:51.345Z,40.37
2019-05-01T08:39:22.681Z,40.41
2019-05-01T08:41:54.481Z,42.13
2019-05-01T08:44:29.532Z,41.30
2019-05-01T08:47:14.758Z,41.64
2019-05-01T08:49:53.738Z,42.10
2019-05-01T08:52:25.091Z,41.35
2019-05-01T08:54:56.717Z,41.97
2019-05-01T08:57:29.034Z,40.02
2019-05-01T09:00:02.039Z,40.49
2019-05-01T09:02:36.795Z,40.02
2019-05-01T09:05:27.001Z,39.24
2019-05-01T09:07:41.347Z,39.06
2019-05-01T09:10:16.996Z,40.70
2019-05-01T09:12:48.255Z,40.50
2019-05-01T09:15:19.867Z,39.84
2019-05-01T09:17:51.775Z,39.49
2019-05-01T09:20:23.599Z,37.97
2019-05-01T09:22:55.266Z,36.90
2019-05-01T09:25:36.798Z,35.95
2019-05-01T09:28:35.960Z,34.67
2019-05-01T09:31:07.914Z,36.35
2019-05-01T09:33:39.737Z,35.82
2019-05-01T09:36:11.660Z,36.34
2019-05-01T09:38:43.341Z,36.07
2019-05-01T09:41:14.955Z,35.67
2019-05-01T09:43:46.721Z,35.31
2019-05-01T09:46:18.488Z,35.46
2019-05-01T09:48:50.077Z,34.63
2019-05-01T09:51:49.174Z,34.73
2019-05-01T09:54:25.567Z,36.64
2019-05-01T09:56:57.476Z,37.71
2019-05-01T09:59:29.127Z,38.07
2019-05-01T10:02:07.775Z,37.49
2019-05-01T10:04:38.412Z,37.70
2019-05-01T10:07:10.300Z,38.10
2019-05-01T10:09:41.826Z,38.41
2019-05-01T10:12:13.678Z,36.54
2019-05-01T10:14:45.429Z,36.82
2019-05-01T10:17:16.897Z,34.90
2019-05-01T10:19:50.212Z,34.42
2019-05-01T10:22:21.951Z,34.46
2019-05-01T10:24:53.623Z,34.28
2019-05-01T10:27:30.790Z,33.43
2019-05-01T10:30:16.386Z,33.70
2019-05-01T10:32:52.863Z,34.66
2019-05-01T10:35:42.332Z,35.00
2019-05-01T10:38:10.680Z,36.43
2019-05-01T10:40:41.472Z,35.52
2019-05-01T10:43:13.262Z,34.14
2019-05-01T10:45:45.201Z,34.91
2019-05-01T10:48:16.845Z,34.07
2019-05-01T10:50:48.237Z,33.15
2019-05-01T10:53:19.894Z,33.58
2019-05-01T10:55:51.826Z,33.07
2019-05-01T10:58:23.392Z,33.59
2019-05-01T11:01:00.827Z,31.46
2019-05-01T11:03:32.691Z,31.93
2019-05-01T11:06:04.580Z,32.02
2019-05-01T11:08:36.343Z,31.35
2019-05-01T11:11:08.154Z,31.81
2019-05-01T11:13:39.905Z,30.72
2019-05-01T11:16:11.604Z,30.59
2019-05-01T11:18:43.185Z,31.26
2019-05-01T11:21:15.076Z,29.76
2019-05-01T11:23:46.731Z,30.14
2019-05-01T11:26:18.749Z,29.28
2019-05-01T11:28:50.672Z,29.08
2019-05-01T11:31:27.995Z,28.36
2019-05-01T11:34:27.881Z,30.69
2019-05-01T11:37:12.765Z,30.39
2019-05-01T11:39:52.068Z,30.74
2019-05-01T11:42:23.650Z,32.29
2019-05-01T11:44:55.678Z,32.17
2019-05-01T11:47:27.438Z,33.67
2019-05-01T11:49:59.097Z,34.80
2019-05-01T11:52:30.760Z,32.18
2019-05-01T11:55:02.510Z,32.54
2019-05-01T11:57:34.364Z,34.39
2019-05-01T12:00:06.950Z,32.48
2019-05-01T12:02:38.899Z,33.01
2019-05-01T12:05:10.485Z,34.68
2019-05-01T12:07:42.384Z,34.41
2019-05-01T12:10:14.473Z,32.79
2019-05-01T12:12:46.398Z,31.92
2019-05-01T12:15:19.567Z,32.33
2019-05-01T12:17:50.518Z,30.39
2019-05-01T12:20:22.944Z,32.39
2019-05-01T12:22:54.758Z,32.91
2019-05-01T12:25:26.572Z,30.61
2019-05-01T12:27:58.099Z,30.39
2019-05-01T12:30:30.698Z,29.87
2019-05-01T12:33:02.361Z,32.47
2019-05-01T12:35:34.230Z,30.87
2019-05-01T12:38:07.064Z,28.53
2019-05-01T12:40:38.674Z,28.75
2019-05-01T12:43:12.269Z,29.05
2019-05-01T12:45:45.706Z,29.53
2019-05-01T12:48:17.356Z,29.78
2019-05-01T12:50:50.545Z,29.01
2019-05-01T12:53:26.364Z,27.94
2019-05-01T12:56:22.579Z,26.35
2019-05-01T12:58:55.949Z,26.72
2019-05-01T13:01:28.061Z,26.11
2019-05-01T13:03:59.795Z,26.03
2019-05-01T13:06:31.589Z,25.53
2019-05-01T13:09:03.241Z,27.51
2019-05-01T13:11:36.686Z,26.63
2019-05-01T13:14:08.485Z,26.23
2019-05-01T13:16:40.315Z,24.52
2019-05-01T13:19:11.956Z,24.94
2019-05-01T13:21:43.838Z,24.63
2019-05-01T13:24:15.662Z,26.07
2019-05-01T13:27:00.049Z,26.29
2019-05-01T13:29:50.782Z,27.51
2019-05-01T13:32:39.966Z,29.35
2019-05-01T13:35:12.126Z,28.59
2019-05-01T13:37:43.918Z,30.02
2019-05-01T13:40:17.200Z,30.13
2019-05-01T13:42:48.936Z,31.25
2019-05-01T13:45:22.082Z,32.73
2019-05-01T13:47:54.497Z,34.36
2019-05-01T13:50:26.775Z,35.34
2019-05-01T13:52:58.614Z,34.10
2019-05-01T13:55:30.590Z,34.40
2019-05-01T13:58:02.406Z,32.44
2019-05-01T14:00:34.358Z,33.03
2019-05-01T14:03:06.112Z,30.89
2019-05-01T14:05:37.990Z,31.69
2019-05-01T14:08:09.783Z,32.88
2019-05-01T14:10:41.322Z,32.57
2019-05-01T14:13:13.054Z,33.12
2019-05-01T14:15:44.706Z,34.68
2019-05-01T14:18:17.733Z,35.71
2019-05-01T14:21:11.438Z,36.09
2019-05-01T14:23:59.768Z,37.89
2019-05-01T14:26:32.118Z,37.10
2019-05-01T14:29:03.820Z,38.76
2019-05-01T14:31:35.462Z,38.51
2019-05-01T14:34:06.860Z,37.87
2019-05-01T14:36:38.666Z,37.66
2019-05-01T14:39:10.428Z,35.89
2019-05-01T14:41:42.230Z,33.70
2019-05-01T14:44:14.116Z,32.83
2019-05-01T14:46:45.899Z,31.51
2019-05-01T14:49:17.948Z,30.39
2019-05-01T14:51:49.623Z,30.13
2019-05-01T14:54:22.505Z,28.08
2019-05-01T14:56:53.987Z,28.24
2019-05-01T14:59:25.790Z,29.67
2019-05-01T15:01:57.550Z,28.50
2019-05-01T15:04:29.366Z,28.65
2019-05-01T15:07:01.219Z,29.87
2019-05-01T15:09:32.882Z,30.26
2019-05-01T15:12:07.341Z,31.35
2019-05-01T15:15:00.614Z,32.66
2019-05-01T15:17:53.171Z,35.25
2019-05-01T15:20:24.976Z,36.73
2019-05-01T15:22:56.694Z,38.53
2019-05-01T15:25:28.541Z,40.25
2019-05-01T15:28:00.357Z,40.55
2019-05-01T15:30:31.945Z,41.67
2019-05-01T15:33:03.456Z,42.83
2019-05-01T15:35:35.047Z,43.15
2019-05-01T15:38:06.985Z,43.27
2019-05-01T15:40:48.791Z,43.47
2019-05-01T15:43:26.838Z,43.78
2019-05-01T15:45:58.721Z,44.42
2019-05-01T15:48:30.862Z,45.05
2019-05-01T15:51:02.730Z,45.57
2019-05-01T15:53:34.375Z,45.96
2019-05-01T15:56:06.224Z,46.23
2019-05-01T15:58:38.054Z,46.23
2019-05-01T16:01:09.631Z,47.04
2019-05-01T16:03:41.376Z,46.84
2019-05-01T16:06:13.126Z,47.12
2019-05-01T16:08:44.855Z,47.03
2019-05-01T16:11:35.613Z,47.49
2019-05-01T16:14:07.216Z,47.66
2019-05-01T16:16:38.975Z,47.99
2019-05-01T16:19:10.637Z,49.07
2019-05-01T16:21:42.513Z,49.36
2019-05-01T16:24:14.103Z,49.79
2019-05-01T16:26:46.124Z,51.23
2019-05-01T16:29:17.903Z,52.08
2019-05-01T16:31:49.687Z,52.48
2019-05-01T16:34:21.391Z,53.23
2019-05-01T16:36:53.101Z,53.62
2019-05-01T16:39:52.824Z,53.68
2019-05-01T16:42:32.150Z,53.97
2019-05-01T16:45:04.501Z,54.80
2019-05-01T16:47:36.506Z,54.68
2019-05-01T16:50:09.244Z,55.08
2019-05-01T16:52:43.427Z,55.22
2019-05-01T16:55:15.294Z,55.64
2019-05-01T16:57:46.965Z,55.69
2019-05-01T17:00:20.709Z,55.84
2019-05-01T17:03:00.762Z,55.86
2019-05-01T17:05:43.581Z,56.14
2019-05-01T17:08:20.450Z,56.36
2019-05-01T17:10:52.302Z,57.54
2019-05-01T17:13:23.891Z,57.48
2019-05-01T17:15:55.327Z,58.50
2019-05-01T17:18:27.202Z,59.31
2019-05-01T17:20:58.885Z,60.76
2019-05-01T17:23:30.769Z,61.31
2019-05-01T17:26:02.420Z,61.74
2019-05-01T17:28:33.922Z,61.85
2019-05-01T17:31:05.771Z,64.04
2019-05-01T17:33:37.568Z,65.37
2019-05-01T17:36:09.196Z,66.07
2019-05-01T17:38:49.406Z,67.14
2019-05-01T17:41:14.293Z,67.73
2019-05-01T17:43:49.342Z,67.21
2019-05-01T17:46:19.914Z,67.05
2019-05-01T17:48:51.747Z,67.23
2019-05-01T17:51:23.615Z,66.21
2019-05-01T17:53:55.125Z,66.81
2019-05-01T17:56:28.561Z,66.07
2019-05-01T17:59:00.410Z,66.56
2019-05-01T18:02:05.278Z,67.29
2019-05-01T18:05:08.138Z,67.28
2019-05-01T18:07:40.112Z,67.09
2019-05-01T18:10:11.891Z,66.72
2019-05-01T18:12:43.427Z,66.86
2019-05-01T18:15:14.997Z,66.30
2019-05-01T18:17:46.874Z,66.20
2019-05-01T18:20:18.661Z,65.91
2019-05-01T18:23:15.842Z,66.50
2019-05-01T18:25:51.610Z,67.09
2019-05-01T18:28:53.971Z,66.00
2019-05-01T18:31:28.027Z,66.33
2019-05-01T18:34:02.504Z,66.92
2019-05-01T18:36:37.172Z,66.79
2019-05-01T18:39:21.911Z,67.04
2019-05-01T18:41:54.280Z,66.55
2019-05-01T18:44:26.122Z,66.65
2019-05-01T18:46:58.174Z,66.56
2019-05-01T18:49:30.096Z,66.78
2019-05-01T18:52:02.045Z,66.72
2019-05-01T18:54:35.113Z,66.68
2019-05-01T18:57:06.287Z,67.10
2019-05-01T18:59:38.158Z,67.36
2019-05-01T19:02:11.528Z,66.88
2019-05-01T19:04:43.316Z,66.93
2019-05-01T19:07:15.114Z,67.09
2019-05-01T19:09:47.740Z,66.54
2019-05-01T19:12:19.754Z,66.27
2019-05-01T19:14:51.552Z,66.46
2019-05-01T19:17:23.094Z,66.01
2019-05-01T19:19:54.977Z,65.96
2019-05-01T19:22:26.395Z,66.13
2019-05-01T19:24:58.045Z,66.43
2019-05-01T19:27:29.961Z,66.20
2019-05-01T19:30:01.457Z,66.34
2019-05-01T19:32:34.197Z,66.15
2019-05-01T19:35:06.047Z,66.24
2019-05-01T19:37:37.812Z,65.31
2019-05-01T19:40:10.345Z,65.80
2019-05-01T19:42:42.223Z,65.29
2019-05-01T19:45:13.729Z,65.37
2019-05-01T19:47:45.933Z,65.78
2019-05-01T19:50:18.026Z,65.81
2019-05-01T19:52:49.615Z,65.79
2019-05-01T19:55:21.352Z,66.53
2019-05-01T19:57:53.080Z,66.04
2019-05-01T20:00:53.094Z,66.04
2019-05-01T20:03:30.701Z,66.36
2019-05-01T20:06:05.673Z,66.39
2019-05-01T20:08:34.317Z,66.56
2019-05-01T20:11:09.392Z,66.19
2019-05-01T20:13:39.937Z,66.87
2019-05-01T20:16:12.988Z,66.80
2019-05-01T20:18:44.413Z,66.81
2019-05-01T20:21:16.319Z,66.35
2019-05-01T20:23:48.238Z,66.21
2019-05-01T20:26:19.750Z,66.91
2019-05-01T20:28:51.516Z,66.89
2019-05-01T20:31:25.219Z,66.99
2019-05-01T20:33:56.618Z,67.03
2019-05-01T20:36:28.222Z,67.03
2019-05-01T20:39:00.256Z,66.80
2019-05-01T20:41:33.541Z,67.20
2019-05-01T20:44:05.417Z,67.32
2019-05-01T20:46:37.049Z,66.76
2019-05-01T20:49:08.716Z,66.90
2019-05-01T20:51:40.658Z,67.14
2019-05-01T20:54:12.551Z,67.41
2019-05-01T20:56:49.825Z,66.99
2019-05-01T20:59:21.520Z,67.16
2019-05-01T21:01:53.034Z,67.29
2019-05-01T21:04:35.488Z,67.58
2019-05-01T21:07:31.813Z,67.82
2019-05-01T21:10:04.238Z,67.98
2019-05-01T21:12:36.664Z,69.02
2019-05-01T21:15:08.438Z,69.16
2019-05-01T21:17:44.201Z,69.62
2019-05-01T21:20:13.844Z,69.98
2019-05-01T21:22:45.335Z,69.90
2019-05-01T21:25:17.005Z,70.05
2019-05-01T21:27:48.661Z,70.05
2019-05-01T21:30:20.355Z,70.42
2019-05-01T21:32:54.103Z,70.29
2019-05-01T21:35:25.377Z,70.42
2019-05-01T21:37:56.942Z,70.01
2019-05-01T21:40:38.692Z,70.06
2019-05-01T21:43:03.271Z,69.91
2019-05-01T21:45:35.118Z,69.81
2019-05-01T21:48:06.596Z,69.72
2019-05-01T21:50:38.415Z,69.02
2019-05-01T21:53:10.248Z,69.45
2019-05-01T21:55:42.124Z,69.43
2019-05-01T21:58:15.306Z,68.87
2019-05-01T22:00:46.428Z,68.84
2019-05-01T22:03:21.578Z,69.14
2019-05-01T22:05:51.364Z,69.16
2019-05-01T22:08:23.565Z,69.22
2019-05-01T22:10:57.611Z,69.10
2019-05-01T22:13:29.342Z,69.86
2019-05-01T22:16:18.408Z,69.78
2019-05-01T22:18:57.703Z,69.45
2019-05-01T22:21:36.461Z,69.71
2019-05-01T22:24:27.461Z,69.34
2019-05-01T22:27:08.839Z,69.89
2019-05-01T22:29:46.689Z,70.08
2019-05-01T22:32:27.773Z,70.23
2019-05-01T22:35:19.939Z,70.51
2019-05-01T22:37:51.696Z,69.89
2019-05-01T22:40:48.535Z,70.14
2019-05-01T22:43:20.344Z,70.54
2019-05-01T22:45:56.316Z,70.55
2019-05-01T22:48:25.306Z,70.95
2019-05-01T22:51:49.114Z,71.16
2019-05-01T22:54:27.428Z,70.79
2019-05-01T22:56:59.024Z,70.48
2019-05-01T22:59:30.597Z,70.35
2019-05-01T23:02:10.822Z,70.30
2019-05-01T23:04:42.427Z,70.16
2019-05-01T23:07:16.868Z,70.25
2019-05-01T23:09:48.230Z,70.35
2019-05-01T23:12:20.036Z,69.90
2019-05-01T23:14:51.941Z,69.95
2019-05-01T23:17:34.918Z,69.81
2019-05-01T23:20:08.060Z,69.40
2019-05-01T23:22:39.676Z,69.24
2019-05-01T23:25:11.264Z,69.98
2019-05-01T23:27:42.898Z,69.57
2019-05-01T23:30:16.762Z,69.93
2019-05-01T23:32:48.720Z,70.70
2019-05-01T23:35:20.433Z,70.21
2019-05-01T23:37:52.592Z,70.48
2019-05-01T23:40:24.292Z,70.30
2019-05-01T23:42:55.831Z,70.00
2019-05-01T23:45:27.733Z,70.11
2019-05-01T23:47:59.889Z,70.09
2019-05-01T23:50:31.685Z,70.17
2019-05-01T23:53:03.485Z,70.59
2019-05-01T23:55:35.114Z,71.08
2019-05-01T23:58:06.690Z,71.26
